Airfield :
LOGIN :

Register | Disclaimer

   EN    FR    IT 

 










Legend :    VFR   Marginal VFR   IFR   Intensive IFR   Very Intensive IFR
Visi :
Ceiling :
>= 8 km
>= 3000ft
5 to 8 km
1000 to 3000 ft
1500m to 5 km
500 to 1000 ft
800 to 1500m
200 to 500 ft
< 800m
< 200 ft
Symbols :   Thunderstorms  Fog  Heavy snow  Heavy precipitations  Wind > 20 kt
SIGMETs :     Misc.  Thunderstorms  Icing  Turbulence  Mountain Waves  Volcanic Ashes






- Airport Elevation : 479 ft
- IATA code : DOL


LFRG - Deauville

CURRENT METAR :
  • 020100Z AUTO VRB01KT 7000 NSC M03/M05 Q1010

EXPIRED METARs :
  • 020030Z AUTO 03003KT 8000 FEW015 M02/M04 Q1010
  • 020000Z AUTO 05003KT 020V110 9000 BKN016 M01/M04 Q1010
  • 012330Z AUTO 05004KT 350V080 9000 OVC016 M01/M03 Q1010
  • 012300Z AUTO 04004KT 010V070 8000 OVC016 M01/M03 Q1010
  • 012230Z AUTO 04004KT 010V080 7000 OVC015 M01/M03 Q1009
  • 012200Z AUTO 03002KT 6000 OVC014 M02/M03 Q1009
  • 012130Z AUTO VRB01KT 7000 SCT012 M02/M03 Q1009
  • 012100Z AUTO 08004KT 6000 FEW012 M02/M03 Q1008 TEMPO BKN008
  • 012030Z AUTO 06004KT 030V100 7000 NSC M01/M03 Q1008 TEMPO BKN008

Expired Forecast.
ATIS : +33 2 31 65 65 36



MET'MAP, your aeronautical weather chart ! - Copyright ORBIFLY December 2007 - Disclaimer

ORBIFLY MET'MAP TEAM :

Programming & Development : Alexandra Zaïnal
Original concept : Baudouin d'Aumeries
Technical & hardware support : Manuel Goepfert
Assistance : Marc-Olivier Méhu




SOURCES & CREDITS :

   NOAA